Wolke Sonne

Wetter Roßtal

Gehe zu: Ammerndorf | Roßtal 2

Tageswerte vom Dienstag, 22.10.2019

Optionen

Tag:
Erweitert:

Alle Werte vom Dienstag, 22.10.2019

Einen Moment bitte, die Daten werden aufbereitet...

UhrzeitTemperaturFeuchteLuftdruckNiederschlagEvapotranspirationNiederschlag?WindWindböenRegenrateWindrichtungHelligkeitSolarstrahlungUV-IndexSonne?Feinstaub 10µmUhrzeit
Diagramm IconDiagramm IconDiagramm IconDiagramm IconDiagramm IconDiagramm IconDiagramm IconDiagramm IconDiagramm IconDiagramm IconDiagramm IconDiagramm IconDiagramm IconDiagramm IconDiagramm Icon
00:0011,7 °C 93 % 1024,0 hPa 0,0 mm 0,0 mm nein 0,0 km/h 0,0 km/h 0,0 mm/h N 0,000 klux 0,0 W/qm 0,0 nein - 00:00
00:0511,7 °C 93 % 1024,0 hPa 0,0 mm 0,0 mm nein 0,0 km/h 1,6 km/h 0,0 mm/h W 0,000 klux 0,0 W/qm 0,0 nein - 00:05
00:1011,7 °C 93 % 1024,0 hPa 0,0 mm 0,0 mm nein 0,0 km/h 0,0 km/h 0,0 mm/h N 0,000 klux 0,0 W/qm 0,0 nein - 00:10
00:1511,7 °C 93 % 1024,0 hPa 0,0 mm 0,0 mm nein 0,0 km/h 0,0 km/h 0,0 mm/h N 0,000 klux 0,0 W/qm 0,0 nein - 00:15
00:2011,7 °C 93 % 1024,1 hPa 0,0 mm 0,0 mm nein 0,0 km/h 0,0 km/h 0,0 mm/h N 0,000 klux 0,0 W/qm 0,0 nein - 00:20
00:2511,1 °C 93 % 1024,2 hPa 0,0 mm 0,0 mm nein 0,0 km/h 0,0 km/h 0,0 mm/h N 0,000 klux 0,0 W/qm 0,0 nein - 00:25
00:3011,1 °C 93 % 1024,2 hPa 0,0 mm 0,0 mm nein 0,0 km/h 4,8 km/h 0,0 mm/h W 0,000 klux 0,0 W/qm 0,0 nein - 00:30
00:3511,1 °C 93 % 1024,2 hPa 0,0 mm 0,0 mm nein 1,6 km/h 4,8 km/h 0,0 mm/h WNW 0,000 klux 0,0 W/qm 0,0 nein - 00:35
00:4011,1 °C 93 % 1024,3 hPa 0,0 mm 0,0 mm nein 1,6 km/h 4,8 km/h 0,0 mm/h WNW 0,000 klux 0,0 W/qm 0,0 nein - 00:40
00:4511,1 °C 93 % 1024,6 hPa 0,0 mm 0,0 mm nein 1,6 km/h 6,4 km/h 0,0 mm/h W 0,000 klux 0,0 W/qm 0,0 nein - 00:45
00:5011,1 °C 93 % 1024,6 hPa 0,0 mm 0,0 mm nein 3,2 km/h 8,0 km/h 0,0 mm/h W 0,000 klux 0,0 W/qm 0,0 nein - 00:50
00:5511,1 °C 93 % 1024,6 hPa 0,0 mm 0,0 mm nein 3,2 km/h 6,4 km/h 0,0 mm/h WNW 0,000 klux 0,0 W/qm 0,0 nein - 00:55
01:0011,1 °C 93 % 1024,6 hPa 0,0 mm 0,0 mm nein 0,0 km/h 8,0 km/h 0,0 mm/h W 0,000 klux 0,0 W/qm 0,0 nein - 01:00
01:0511,1 °C 93 % 1024,7 hPa 0,0 mm 0,0 mm nein 4,8 km/h 9,7 km/h 0,0 mm/h WNW 0,000 klux 0,0 W/qm 0,0 nein - 01:05
01:1011,1 °C 93 % 1024,6 hPa 0,0 mm 0,0 mm nein 1,6 km/h 6,4 km/h 0,0 mm/h WNW 0,000 klux 0,0 W/qm 0,0 nein - 01:10
01:1511,1 °C 93 % 1024,6 hPa 0,0 mm 0,0 mm nein 0,0 km/h 0,0 km/h 0,0 mm/h N 0,000 klux 0,0 W/qm 0,0 nein - 01:15
01:2011,1 °C 93 % 1024,6 hPa 0,0 mm 0,0 mm nein 0,0 km/h 6,4 km/h 0,0 mm/h WNW 0,000 klux 0,0 W/qm 0,0 nein - 01:20
01:2511,1 °C 94 % 1024,5 hPa 0,0 mm 0,0 mm nein 0,0 km/h 4,8 km/h 0,0 mm/h WNW 0,000 klux 0,0 W/qm 0,0 nein - 01:25
01:3011,1 °C 94 % 1024,7 hPa 0,0 mm 0,0 mm nein 0,0 km/h 0,0 km/h 0,0 mm/h N 0,000 klux 0,0 W/qm 0,0 nein - 01:30
01:3510,6 °C 94 % 1024,7 hPa 0,0 mm 0,0 mm nein 0,0 km/h 0,0 km/h 0,0 mm/h N 0,000 klux 0,0 W/qm 0,0 nein - 01:35
01:4010,6 °C 93 % 1024,9 hPa 0,0 mm 0,0 mm nein 0,0 km/h 0,0 km/h 0,0 mm/h N 0,000 klux 0,0 W/qm 0,0 nein - 01:40
01:4510,6 °C 93 % 1024,7 hPa 0,0 mm 0,0 mm nein 0,0 km/h 3,2 km/h 0,0 mm/h WNW 0,000 klux 0,0 W/qm 0,0 nein - 01:45
01:5010,6 °C 93 % 1024,7 hPa 0,0 mm 0,0 mm nein 0,0 km/h 0,0 km/h 0,0 mm/h N 0,000 klux 0,0 W/qm 0,0 nein - 01:50
01:5510,6 °C 93 % 1024,7 hPa 0,0 mm 0,0 mm nein 0,0 km/h 1,6 km/h 0,0 mm/h WNW 0,000 klux 0,0 W/qm 0,0 nein - 01:55
UhrzeitTemperaturFeuchteLuftdruckNiederschlagEvapotranspirationNiederschlag?WindWindböenRegenrateWindrichtungHelligkeitSolarstrahlungUV-IndexSonne?Feinstaub 10µmUhrzeit
02:0010,6 °C 93 % 1024,8 hPa 0,0 mm 0,0 mm nein 0,0 km/h 0,0 km/h 0,0 mm/h N 0,000 klux 0,0 W/qm 0,0 nein - 02:00
02:0510,6 °C 94 % 1024,7 hPa 0,0 mm 0,0 mm nein 0,0 km/h 1,6 km/h 0,0 mm/h WNW 0,000 klux 0,0 W/qm 0,0 nein - 02:05
02:1010,6 °C 94 % 1024,6 hPa 0,0 mm 0,0 mm nein 0,0 km/h 0,0 km/h 0,0 mm/h N 0,000 klux 0,0 W/qm 0,0 nein - 02:10
02:1510,6 °C 94 % 1024,5 hPa 0,0 mm 0,0 mm nein 0,0 km/h 0,0 km/h 0,0 mm/h N 0,000 klux 0,0 W/qm 0,0 nein - 02:15
02:2010,6 °C 94 % 1024,5 hPa 0,0 mm 0,0 mm nein 0,0 km/h 0,0 km/h 0,0 mm/h N 0,000 klux 0,0 W/qm 0,0 nein - 02:20
02:2510,6 °C 93 % 1024,6 hPa 0,0 mm 0,0 mm nein 0,0 km/h 0,0 km/h 0,0 mm/h N 0,000 klux 0,0 W/qm 0,0 nein - 02:25
02:3010,6 °C 93 % 1024,5 hPa 0,0 mm 0,0 mm nein 0,0 km/h 0,0 km/h 0,0 mm/h N 0,000 klux 0,0 W/qm 0,0 nein - 02:30
02:3510,6 °C 93 % 1024,4 hPa 0,0 mm 0,0 mm nein 0,0 km/h 0,0 km/h 0,0 mm/h N 0,000 klux 0,0 W/qm 0,0 nein - 02:35
02:4010,0 °C 93 % 1024,6 hPa 0,0 mm 0,0 mm nein 1,6 km/h 4,8 km/h 0,0 mm/h WNW 0,000 klux 0,0 W/qm 0,0 nein - 02:40
02:4510,0 °C 93 % 1024,6 hPa 0,0 mm 0,0 mm nein 0,0 km/h 3,2 km/h 0,0 mm/h WNW 0,000 klux 0,0 W/qm 0,0 nein - 02:45
02:5010,0 °C 93 % 1024,7 hPa 0,0 mm 0,0 mm nein 0,0 km/h 0,0 km/h 0,0 mm/h N 0,000 klux 0,0 W/qm 0,0 nein - 02:50
02:5510,0 °C 93 % 1024,7 hPa 0,0 mm 0,0 mm nein 0,0 km/h 1,6 km/h 0,0 mm/h WNW 0,000 klux 0,0 W/qm 0,0 nein - 02:55
03:0010,0 °C 93 % 1024,7 hPa 0,0 mm 0,0 mm nein 0,0 km/h 1,6 km/h 0,0 mm/h WNW 0,000 klux 0,0 W/qm 0,0 nein - 03:00
03:0510,0 °C 93 % 1024,6 hPa 0,0 mm 0,0 mm nein 0,0 km/h 0,0 km/h 0,0 mm/h N 0,000 klux 0,0 W/qm 0,0 nein - 03:05
03:1010,0 °C 94 % 1024,5 hPa 0,0 mm 0,0 mm nein 0,0 km/h 0,0 km/h 0,0 mm/h N 0,000 klux 0,0 W/qm 0,0 nein - 03:10
03:1510,0 °C 94 % 1024,5 hPa 0,0 mm 0,0 mm nein 0,0 km/h 0,0 km/h 0,0 mm/h N 0,000 klux 0,0 W/qm 0,0 nein - 03:15
03:2010,0 °C 94 % 1024,4 hPa 0,0 mm 0,0 mm nein 0,0 km/h 0,0 km/h 0,0 mm/h N 0,000 klux 0,0 W/qm 0,0 nein - 03:20
03:2510,0 °C 94 % 1024,5 hPa 0,0 mm 0,0 mm nein 0,0 km/h 0,0 km/h 0,0 mm/h N 0,000 klux 0,0 W/qm 0,0 nein - 03:25
03:3010,0 °C 94 % 1024,6 hPa 0,0 mm 0,0 mm nein 0,0 km/h 0,0 km/h 0,0 mm/h N 0,000 klux 0,0 W/qm 0,0 nein - 03:30
03:3510,0 °C 94 % 1024,5 hPa 0,0 mm 0,0 mm nein 0,0 km/h 0,0 km/h 0,0 mm/h N 0,000 klux 0,0 W/qm 0,0 nein - 03:35
03:4010,0 °C 93 % 1024,5 hPa 0,0 mm 0,0 mm nein 0,0 km/h 0,0 km/h 0,0 mm/h N 0,000 klux 0,0 W/qm 0,0 nein - 03:40
03:459,4 °C 94 % 1024,4 hPa 0,0 mm 0,0 mm nein 0,0 km/h 0,0 km/h 0,0 mm/h N 0,000 klux 0,0 W/qm 0,0 nein - 03:45
03:509,4 °C 94 % 1024,4 hPa 0,0 mm 0,0 mm nein 0,0 km/h 0,0 km/h 0,0 mm/h N 0,000 klux 0,0 W/qm 0,0 nein - 03:50
03:559,4 °C 94 % 1024,3 hPa 0,0 mm 0,0 mm nein 0,0 km/h 1,6 km/h 0,0 mm/h WNW 0,000 klux 0,0 W/qm 0,0 nein - 03:55
UhrzeitTemperaturFeuchteLuftdruckNiederschlagEvapotranspirationNiederschlag?WindWindböenRegenrateWindrichtungHelligkeitSolarstrahlungUV-IndexSonne?Feinstaub 10µmUhrzeit
04:009,4 °C 94 % 1024,4 hPa 0,0 mm 0,0 mm nein 0,0 km/h 1,6 km/h 0,0 mm/h WNW 0,000 klux 0,0 W/qm 0,0 nein - 04:00
04:059,4 °C 94 % 1024,4 hPa 0,0 mm 0,0 mm nein 0,0 km/h 3,2 km/h 0,0 mm/h WNW 0,000 klux 0,0 W/qm 0,0 nein - 04:05
04:109,4 °C 94 % 1024,3 hPa 0,0 mm 0,0 mm nein 0,0 km/h 0,0 km/h 0,0 mm/h N 0,000 klux 0,0 W/qm 0,0 nein - 04:10
04:159,4 °C 94 % 1024,3 hPa 0,0 mm 0,0 mm nein 0,0 km/h 0,0 km/h 0,0 mm/h N 0,000 klux 0,0 W/qm 0,0 nein - 04:15
04:209,4 °C 94 % 1024,3 hPa 0,0 mm 0,0 mm nein 0,0 km/h 0,0 km/h 0,0 mm/h N 0,000 klux 0,0 W/qm 0,0 nein - 04:20
04:259,4 °C 94 % 1024,3 hPa 0,0 mm 0,0 mm nein 0,0 km/h 0,0 km/h 0,0 mm/h N 0,000 klux 0,0 W/qm 0,0 nein - 04:25
04:309,4 °C 94 % 1024,3 hPa 0,0 mm 0,0 mm nein 0,0 km/h 0,0 km/h 0,0 mm/h N 0,000 klux 0,0 W/qm 0,0 nein - 04:30
04:359,4 °C 94 % 1024,2 hPa 0,0 mm 0,0 mm nein 0,0 km/h 0,0 km/h 0,0 mm/h N 0,000 klux 0,0 W/qm 0,0 nein - 04:35
04:409,4 °C 94 % 1024,2 hPa 0,0 mm 0,0 mm nein 0,0 km/h 0,0 km/h 0,0 mm/h N 0,000 klux 0,0 W/qm 0,0 nein - 04:40
04:459,4 °C 94 % 1024,3 hPa 0,0 mm 0,0 mm nein 0,0 km/h 0,0 km/h 0,0 mm/h N 0,000 klux 0,0 W/qm 0,0 nein - 04:45
04:509,4 °C 94 % 1024,5 hPa 0,0 mm 0,0 mm nein 0,0 km/h 0,0 km/h 0,0 mm/h N 0,000 klux 0,0 W/qm 0,0 nein - 04:50
04:558,9 °C 94 % 1024,7 hPa 0,0 mm 0,0 mm nein 0,0 km/h 0,0 km/h 0,0 mm/h N 0,000 klux 0,0 W/qm 0,0 nein - 04:55
05:008,9 °C 94 % 1025,0 hPa 0,0 mm 0,0 mm nein 0,0 km/h 0,0 km/h 0,0 mm/h N 0,000 klux 0,0 W/qm 0,0 nein - 05:00
05:058,9 °C 94 % 1025,1 hPa 0,0 mm 0,0 mm nein 1,6 km/h 4,8 km/h 0,0 mm/h W 0,000 klux 0,0 W/qm 0,0 nein - 05:05
05:108,9 °C 94 % 1025,1 hPa 0,0 mm 0,0 mm nein 0,0 km/h 3,2 km/h 0,0 mm/h W 0,000 klux 0,0 W/qm 0,0 nein - 05:10
05:158,9 °C 94 % 1025,0 hPa 0,0 mm 0,0 mm nein 0,0 km/h 0,0 km/h 0,0 mm/h N 0,000 klux 0,0 W/qm 0,0 nein - 05:15
05:208,9 °C 94 % 1025,0 hPa 0,0 mm 0,0 mm nein 0,0 km/h 0,0 km/h 0,0 mm/h N 0,000 klux 0,0 W/qm 0,0 nein - 05:20
05:258,9 °C 94 % 1025,0 hPa 0,0 mm 0,0 mm nein 0,0 km/h 0,0 km/h 0,0 mm/h N 0,000 klux 0,0 W/qm 0,0 nein - 05:25
05:308,9 °C 94 % 1025,2 hPa 0,0 mm 0,0 mm nein 0,0 km/h 0,0 km/h 0,0 mm/h N 0,000 klux 0,0 W/qm 0,0 nein - 05:30
05:358,9 °C 94 % 1025,2 hPa 0,0 mm 0,0 mm nein 0,0 km/h 0,0 km/h 0,0 mm/h N 0,000 klux 0,0 W/qm 0,0 nein - 05:35
05:408,9 °C 94 % 1025,3 hPa 0,0 mm 0,0 mm nein 0,0 km/h 0,0 km/h 0,0 mm/h N 0,000 klux 0,0 W/qm 0,0 nein - 05:40
05:458,9 °C 94 % 1025,2 hPa 0,0 mm 0,0 mm nein 0,0 km/h 0,0 km/h 0,0 mm/h N 0,000 klux 0,0 W/qm 0,0 nein - 05:45
05:508,3 °C 94 % 1025,4 hPa 0,0 mm 0,0 mm nein 0,0 km/h 0,0 km/h 0,0 mm/h N 0,000 klux 0,0 W/qm 0,0 nein - 05:50
05:558,3 °C 94 % 1025,2 hPa 0,0 mm 0,0 mm nein 0,0 km/h 0,0 km/h 0,0 mm/h N 0,000 klux 0,0 W/qm 0,0 nein - 05:55
UhrzeitTemperaturFeuchteLuftdruckNiederschlagEvapotranspirationNiederschlag?WindWindböenRegenrateWindrichtungHelligkeitSolarstrahlungUV-IndexSonne?Feinstaub 10µmUhrzeit
06:008,3 °C 94 % 1025,1 hPa 0,0 mm 0,0 mm nein 0,0 km/h 0,0 km/h 0,0 mm/h N 0,000 klux 0,0 W/qm 0,0 nein - 06:00
06:058,3 °C 94 % 1024,9 hPa 0,0 mm 0,0 mm nein 0,0 km/h 0,0 km/h 0,0 mm/h N 0,000 klux 0,0 W/qm 0,0 nein - 06:05
06:108,3 °C 94 % 1024,9 hPa 0,0 mm 0,0 mm nein 0,0 km/h 0,0 km/h 0,0 mm/h N 0,000 klux 0,0 W/qm 0,0 nein - 06:10
06:158,3 °C 94 % 1024,8 hPa 0,0 mm 0,0 mm nein 0,0 km/h 0,0 km/h 0,0 mm/h N 0,000 klux 0,0 W/qm 0,0 nein - 06:15
06:208,3 °C 94 % 1024,9 hPa 0,0 mm 0,0 mm nein 0,0 km/h 0,0 km/h 0,0 mm/h N 0,000 klux 0,0 W/qm 0,0 nein - 06:20
06:258,3 °C 94 % 1024,8 hPa 0,0 mm 0,0 mm nein 0,0 km/h 0,0 km/h 0,0 mm/h N 0,000 klux 0,0 W/qm 0,0 nein - 06:25
06:308,3 °C 94 % 1024,7 hPa 0,0 mm 0,0 mm nein 0,0 km/h 0,0 km/h 0,0 mm/h N 0,000 klux 0,0 W/qm 0,0 nein - 06:30
06:358,3 °C 94 % 1024,7 hPa 0,0 mm 0,0 mm nein 0,0 km/h 0,0 km/h 0,0 mm/h N 0,000 klux 0,0 W/qm 0,0 nein - 06:35
06:408,3 °C 94 % 1024,7 hPa 0,0 mm 0,0 mm nein 0,0 km/h 0,0 km/h 0,0 mm/h N 0,000 klux 0,0 W/qm 0,0 nein - 06:40
06:458,3 °C 94 % 1024,7 hPa 0,0 mm 0,0 mm nein 0,0 km/h 0,0 km/h 0,0 mm/h N 0,000 klux 0,0 W/qm 0,0 nein - 06:45
06:508,3 °C 94 % 1024,8 hPa 0,0 mm 0,0 mm nein 0,0 km/h 0,0 km/h 0,0 mm/h N 0,000 klux 0,0 W/qm 0,0 nein - 06:50
06:558,3 °C 94 % 1024,7 hPa 0,0 mm 0,0 mm nein 0,0 km/h 0,0 km/h 0,0 mm/h N 0,000 klux 0,0 W/qm 0,0 nein - 06:55
07:008,3 °C 94 % 1024,7 hPa 0,0 mm 0,0 mm nein 0,0 km/h 0,0 km/h 0,0 mm/h N 0,000 klux 0,0 W/qm 0,0 nein - 07:00
07:058,3 °C 94 % 1024,8 hPa 0,0 mm 0,0 mm nein 0,0 km/h 0,0 km/h 0,0 mm/h N 0,000 klux 0,0 W/qm 0,0 nein - 07:05
07:108,3 °C 94 % 1024,7 hPa 0,0 mm 0,0 mm nein 0,0 km/h 0,0 km/h 0,0 mm/h N 0,000 klux 0,0 W/qm 0,0 nein - 07:10
07:158,3 °C 94 % 1024,9 hPa 0,0 mm 0,0 mm nein 0,0 km/h 0,0 km/h 0,0 mm/h N 0,000 klux 0,0 W/qm 0,0 nein - 07:15
07:208,3 °C 94 % 1025,0 hPa 0,0 mm 0,0 mm nein 0,0 km/h 0,0 km/h 0,0 mm/h N 0,000 klux 0,0 W/qm 0,0 nein - 07:20
07:258,3 °C 94 % 1025,1 hPa 0,0 mm 0,0 mm nein 0,0 km/h 0,0 km/h 0,0 mm/h N 0,000 klux 0,0 W/qm 0,0 nein - 07:25
07:307,8 °C 94 % 1025,1 hPa 0,0 mm 0,0 mm nein 0,0 km/h 0,0 km/h 0,0 mm/h N 0,000 klux 0,0 W/qm 0,0 nein - 07:30
07:357,8 °C 94 % 1025,0 hPa 0,0 mm 0,0 mm nein 0,0 km/h 0,0 km/h 0,0 mm/h N 0,000 klux 0,0 W/qm 0,0 nein - 07:35
07:407,8 °C 95 % 1025,0 hPa 0,0 mm 0,0 mm nein 0,0 km/h 0,0 km/h 0,0 mm/h N 0,000 klux 0,0 W/qm 0,0 nein - 07:40
07:457,8 °C 95 % 1025,1 hPa 0,0 mm 0,0 mm nein 0,0 km/h 0,0 km/h 0,0 mm/h N 0,000 klux 0,0 W/qm 0,0 nein - 07:45
07:507,8 °C 95 % 1025,2 hPa 0,0 mm 0,0 mm nein 0,0 km/h 0,0 km/h 0,0 mm/h N 0,672 klux 4,0 W/qm 0,0 nein - 07:50
07:557,8 °C 95 % 1025,3 hPa 0,0 mm 0,0 mm nein 0,0 km/h 0,0 km/h 0,0 mm/h N 1,171 klux 7,0 W/qm 0,0 nein - 07:55
UhrzeitTemperaturFeuchteLuftdruckNiederschlagEvapotranspirationNiederschlag?WindWindböenRegenrateWindrichtungHelligkeitSolarstrahlungUV-IndexSonne?Feinstaub 10µmUhrzeit
08:007,8 °C 95 % 1025,1 hPa 0,0 mm 0,0 mm nein 0,0 km/h 0,0 km/h 0,0 mm/h N 1,832 klux 11,0 W/qm 0,0 nein - 08:00
08:057,8 °C 95 % 1025,2 hPa 0,0 mm 0,0 mm nein 0,0 km/h 0,0 km/h 0,0 mm/h N 2,157 klux 13,0 W/qm 0,0 ja - 08:05
08:107,8 °C 95 % 1025,3 hPa 0,0 mm 0,0 mm nein 0,0 km/h 0,0 km/h 0,0 mm/h N 2,809 klux 17,0 W/qm 0,0 nein - 08:10
08:157,8 °C 95 % 1025,0 hPa 0,0 mm 0,0 mm nein 3,2 km/h 4,8 km/h 0,0 mm/h SO 3,785 klux 23,0 W/qm 0,0 nein - 08:15
08:207,8 °C 95 % 1024,9 hPa 0,0 mm 0,0 mm nein 1,6 km/h 4,8 km/h 0,0 mm/h SO 5,246 klux 32,0 W/qm 0,0 ja - 08:20
08:257,8 °C 95 % 1024,9 hPa 0,0 mm 0,0 mm nein 0,0 km/h 0,0 km/h 0,0 mm/h N 7,184 klux 44,0 W/qm 0,0 ja - 08:25
08:307,8 °C 95 % 1024,8 hPa 0,0 mm 0,0 mm nein 0,0 km/h 0,0 km/h 0,0 mm/h N 9,269 klux 57,0 W/qm 0,0 ja - 08:30
08:357,8 °C 95 % 1024,7 hPa 0,0 mm 0,0 mm nein 0,0 km/h 0,0 km/h 0,0 mm/h N 10,366 klux 64,0 W/qm 0,0 ja - 08:35
08:408,3 °C 96 % 1024,7 hPa 0,0 mm 0,0 mm nein 0,0 km/h 0,0 km/h 0,0 mm/h N 11,132 klux 69,0 W/qm 0,0 ja - 08:40
08:458,3 °C 96 % 1024,6 hPa 0,0 mm 0,0 mm nein 0,0 km/h 0,0 km/h 0,0 mm/h N 12,855 klux 80,0 W/qm 0,0 ja - 08:45
08:508,3 °C 96 % 1024,4 hPa 0,0 mm 0,0 mm nein 0,0 km/h 0,0 km/h 0,0 mm/h N 15,046 klux 94,0 W/qm 0,0 ja - 08:50
08:558,9 °C 96 % 1024,4 hPa 0,0 mm 0,0 mm nein 0,0 km/h 0,0 km/h 0,0 mm/h N 17,060 klux 107,0 W/qm 0,0 ja - 08:55
09:008,9 °C 96 % 1024,8 hPa 0,0 mm 0,0 mm nein 0,0 km/h 0,0 km/h 0,0 mm/h N 22,076 klux 139,0 W/qm 0,0 ja - 09:00
09:059,4 °C 97 % 1025,0 hPa 0,0 mm 0,0 mm nein 0,0 km/h 0,0 km/h 0,0 mm/h N 20,251 klux 128,0 W/qm 0,0 ja - 09:05
09:109,4 °C 97 % 1025,0 hPa 0,0 mm 0,0 mm nein 0,0 km/h 0,0 km/h 0,0 mm/h N 21,907 klux 139,0 W/qm 0,0 ja - 09:10
09:159,4 °C 97 % 1025,3 hPa 0,0 mm 0,0 mm nein 0,0 km/h 0,0 km/h 0,0 mm/h N 21,510 klux 137,0 W/qm 0,0 ja - 09:15
09:2010,0 °C 97 % 1025,2 hPa 0,0 mm 0,0 mm nein 0,0 km/h 0,0 km/h 0,0 mm/h N 25,339 klux 162,0 W/qm 0,0 ja - 09:20
09:2510,0 °C 97 % 1025,3 hPa 0,0 mm 0,0 mm nein 0,0 km/h 0,0 km/h 0,0 mm/h N 23,842 klux 153,0 W/qm 0,0 ja - 09:25
09:3010,0 °C 97 % 1025,2 hPa 0,0 mm 0,0 mm nein 0,0 km/h 0,0 km/h 0,0 mm/h N 30,430 klux 196,0 W/qm 0,0 ja - 09:30
09:3510,6 °C 97 % 1025,0 hPa 0,0 mm 0,0 mm nein 0,0 km/h 0,0 km/h 0,0 mm/h N 28,308 klux 183,0 W/qm 0,0 ja - 09:35
09:4010,6 °C 97 % 1025,1 hPa 0,0 mm 0,0 mm nein 3,2 km/h 9,7 km/h 0,0 mm/h NNW 24,815 klux 161,0 W/qm 0,0 ja - 09:40
09:4510,6 °C 97 % 1025,1 hPa 0,0 mm 0,0 mm nein 3,2 km/h 6,4 km/h 0,0 mm/h NNW 21,808 klux 142,0 W/qm 0,0 ja - 09:45
09:5010,6 °C 97 % 1025,2 hPa 0,0 mm 0,0 mm nein 4,8 km/h 6,4 km/h 0,0 mm/h NNW 28,618 klux 187,0 W/qm 0,4 ja - 09:50
09:5510,6 °C 97 % 1025,3 hPa 0,0 mm 0,0 mm nein 3,2 km/h 4,8 km/h 0,0 mm/h NNW 32,025 klux 210,0 W/qm 0,5 ja - 09:55
UhrzeitTemperaturFeuchteLuftdruckNiederschlagEvapotranspirationNiederschlag?WindWindböenRegenrateWindrichtungHelligkeitSolarstrahlungUV-IndexSonne?Feinstaub 10µmUhrzeit
10:0010,6 °C 97 % 1025,1 hPa 0,0 mm 0,1 mm nein 0,0 km/h 0,0 km/h 0,0 mm/h N 38,450 klux 253,0 W/qm 0,6 ja - 10:00
10:0511,1 °C 97 % 1025,1 hPa 0,0 mm 0,0 mm nein 0,0 km/h 0,0 km/h 0,0 mm/h N 38,472 klux 254,0 W/qm 0,6 ja - 10:05
10:1011,1 °C 97 % 1025,1 hPa 0,0 mm 0,0 mm nein 0,0 km/h 0,0 km/h 0,0 mm/h N 27,927 klux 185,0 W/qm 0,6 ja - 10:10
10:1511,1 °C 97 % 1025,0 hPa 0,0 mm 0,0 mm nein 0,0 km/h 0,0 km/h 0,0 mm/h N 20,012 klux 133,0 W/qm 0,6 nein - 10:15
10:2011,1 °C 97 % 1024,9 hPa 0,0 mm 0,0 mm nein 0,0 km/h 1,6 km/h 0,0 mm/h NNW 32,546 klux 217,0 W/qm 0,7 ja - 10:20
10:2511,1 °C 97 % 1024,9 hPa 0,0 mm 0,0 mm nein 0,0 km/h 0,0 km/h 0,0 mm/h N 38,872 klux 260,0 W/qm 0,8 ja - 10:25
10:3011,7 °C 97 % 1024,9 hPa 0,0 mm 0,0 mm nein 0,0 km/h 0,0 km/h 0,0 mm/h N 49,631 klux 333,0 W/qm 0,9 ja - 10:30
10:3511,7 °C 96 % 1025,0 hPa 0,0 mm 0,0 mm nein 0,0 km/h 3,2 km/h 0,0 mm/h NO 45,766 klux 308,0 W/qm 0,9 ja - 10:35
10:4011,7 °C 96 % 1024,9 hPa 0,0 mm 0,0 mm nein 1,6 km/h 3,2 km/h 0,0 mm/h NO 52,002 klux 351,0 W/qm 1,0 ja - 10:40
10:4512,2 °C 96 % 1024,8 hPa 0,0 mm 0,0 mm nein 1,6 km/h 4,8 km/h 0,0 mm/h NO 54,067 klux 366,0 W/qm 1,1 ja - 10:45
10:5012,2 °C 96 % 1024,9 hPa 0,0 mm 0,0 mm nein 3,2 km/h 6,4 km/h 0,0 mm/h NO 43,162 klux 293,0 W/qm 1,0 ja - 10:50
10:5512,8 °C 95 % 1024,9 hPa 0,0 mm 0,0 mm nein 4,8 km/h 9,7 km/h 0,0 mm/h NNW 46,422 klux 316,0 W/qm 1,0 ja - 10:55
11:0012,8 °C 94 % 1024,9 hPa 0,0 mm 0,1 mm nein 4,8 km/h 11,3 km/h 0,0 mm/h N 47,911 klux 327,0 W/qm 1,1 ja - 11:00
11:0512,8 °C 94 % 1025,0 hPa 0,0 mm 0,0 mm nein 3,2 km/h 6,4 km/h 0,0 mm/h NNW 47,495 klux 325,0 W/qm 1,1 ja - 11:05
11:1012,8 °C 93 % 1025,1 hPa 0,0 mm 0,0 mm nein 3,2 km/h 11,3 km/h 0,0 mm/h NNW 47,523 klux 326,0 W/qm 1,2 ja - 11:10
11:1512,8 °C 92 % 1025,1 hPa 0,0 mm 0,0 mm nein 6,4 km/h 11,3 km/h 0,0 mm/h NW 36,356 klux 250,0 W/qm 1,0 ja - 11:15
11:2013,3 °C 92 % 1024,9 hPa 0,0 mm 0,0 mm nein 4,8 km/h 8,0 km/h 0,0 mm/h NNW 49,185 klux 339,0 W/qm 1,2 ja - 11:20
11:2513,3 °C 92 % 1025,0 hPa 0,0 mm 0,0 mm nein 4,8 km/h 11,3 km/h 0,0 mm/h N 54,578 klux 377,0 W/qm 1,3 ja - 11:25
11:3013,3 °C 92 % 1025,2 hPa 0,0 mm 0,0 mm nein 4,8 km/h 12,9 km/h 0,0 mm/h N 53,306 klux 369,0 W/qm 1,3 ja - 11:30
11:3513,3 °C 90 % 1025,1 hPa 0,0 mm 0,0 mm nein 6,4 km/h 12,9 km/h 0,0 mm/h SW 54,640 klux 379,0 W/qm 1,3 ja - 11:35
11:4013,9 °C 89 % 1024,9 hPa 0,0 mm 0,0 mm nein 6,4 km/h 12,9 km/h 0,0 mm/h SW 50,794 klux 353,0 W/qm 1,3 ja - 11:40
11:4513,9 °C 89 % 1024,8 hPa 0,0 mm 0,0 mm nein 8,0 km/h 14,5 km/h 0,0 mm/h NNW 44,812 klux 312,0 W/qm 1,3 ja - 11:45
11:5013,9 °C 89 % 1024,9 hPa 0,0 mm 0,0 mm nein 8,0 km/h 12,9 km/h 0,0 mm/h NNW 35,272 klux 246,0 W/qm 1,2 ja - 11:50
11:5513,9 °C 88 % 1024,8 hPa 0,0 mm 0,0 mm nein 9,7 km/h 17,7 km/h 0,0 mm/h NW 30,778 klux 215,0 W/qm 1,1 nein - 11:55
UhrzeitTemperaturFeuchteLuftdruckNiederschlagEvapotranspirationNiederschlag?WindWindböenRegenrateWindrichtungHelligkeitSolarstrahlungUV-IndexSonne?Feinstaub 10µmUhrzeit
12:0013,9 °C 87 % 1024,8 hPa 0,0 mm 0,2 mm nein 9,7 km/h 17,7 km/h 0,0 mm/h NNW 26,300 klux 184,0 W/qm 1,0 nein - 12:00
12:0513,9 °C 87 % 1025,0 hPa 0,0 mm 0,0 mm nein 8,0 km/h 14,5 km/h 0,0 mm/h NNW 27,406 klux 192,0 W/qm 1,0 nein - 12:05
12:1013,9 °C 87 % 1025,0 hPa 0,0 mm 0,0 mm nein 6,4 km/h 11,3 km/h 0,0 mm/h N 27,799 klux 195,0 W/qm 1,0 nein - 12:10
12:1513,9 °C 87 % 1025,0 hPa 0,0 mm 0,0 mm nein 6,4 km/h 11,3 km/h 0,0 mm/h NNW 34,743 klux 244,0 W/qm 1,1 nein - 12:15
12:2013,9 °C 87 % 1024,8 hPa 0,0 mm 0,0 mm nein 8,0 km/h 14,5 km/h 0,0 mm/h N 34,707 klux 244,0 W/qm 1,2 nein - 12:20
12:2513,9 °C 88 % 1025,0 hPa 0,0 mm 0,0 mm nein 6,4 km/h 14,5 km/h 0,0 mm/h N 31,833 klux 224,0 W/qm 1,1 nein - 12:25
12:3013,9 °C 87 % 1024,8 hPa 0,0 mm 0,0 mm nein 9,7 km/h 14,5 km/h 0,0 mm/h NNW 33,937 klux 239,0 W/qm 1,1 nein - 12:30
12:3513,9 °C 87 % 1025,0 hPa 0,0 mm 0,0 mm nein 4,8 km/h 11,3 km/h 0,0 mm/h N 35,049 klux 247,0 W/qm 1,1 nein - 12:35
12:4014,4 °C 87 % 1024,9 hPa 0,0 mm 0,0 mm nein 3,2 km/h 9,7 km/h 0,0 mm/h NNW 42,120 klux 297,0 W/qm 1,2 ja - 12:40
12:4514,4 °C 87 % 1024,8 hPa 0,0 mm 0,0 mm nein 3,2 km/h 8,0 km/h 0,0 mm/h NNO 49,897 klux 352,0 W/qm 1,3 ja - 12:45
12:5014,4 °C 86 % 1024,6 hPa 0,0 mm 0,0 mm nein 4,8 km/h 11,3 km/h 0,0 mm/h NNW 51,440 klux 363,0 W/qm 1,4 ja - 12:50
12:5514,4 °C 86 % 1024,7 hPa 0,0 mm 0,0 mm nein 8,0 km/h 16,1 km/h 0,0 mm/h N 57,664 klux 407,0 W/qm 1,5 ja - 12:55
13:0014,4 °C 85 % 1024,6 hPa 0,0 mm 0,2 mm nein 6,4 km/h 12,9 km/h 0,0 mm/h NNO 51,851 klux 366,0 W/qm 1,5 ja - 13:00
13:0515,0 °C 84 % 1024,5 hPa 0,0 mm 0,0 mm nein 6,4 km/h 12,9 km/h 0,0 mm/h N 59,079 klux 417,0 W/qm 1,5 ja - 13:05
13:1015,0 °C 84 % 1024,5 hPa 0,0 mm 0,0 mm nein 6,4 km/h 11,3 km/h 0,0 mm/h N 51,012 klux 360,0 W/qm 1,5 ja - 13:10
13:1515,0 °C 83 % 1024,5 hPa 0,0 mm 0,0 mm nein 6,4 km/h 11,3 km/h 0,0 mm/h NO 48,050 klux 339,0 W/qm 1,4 ja - 13:15
13:2015,0 °C 83 % 1024,5 hPa 0,0 mm 0,0 mm nein 6,4 km/h 11,3 km/h 0,0 mm/h NNW 57,571 klux 406,0 W/qm 1,5 ja - 13:20
13:2515,0 °C 83 % 1024,5 hPa 0,0 mm 0,0 mm nein 4,8 km/h 11,3 km/h 0,0 mm/h N 65,689 klux 463,0 W/qm 1,6 ja - 13:25
13:3015,0 °C 84 % 1024,5 hPa 0,0 mm 0,0 mm nein 6,4 km/h 11,3 km/h 0,0 mm/h NW 42,733 klux 301,0 W/qm 1,4 ja - 13:30
13:3515,0 °C 83 % 1024,4 hPa 0,0 mm 0,0 mm nein 6,4 km/h 11,3 km/h 0,0 mm/h NO 43,335 klux 305,0 W/qm 1,3 ja - 13:35
13:4015,0 °C 83 % 1024,4 hPa 0,0 mm 0,0 mm nein 6,4 km/h 16,1 km/h 0,0 mm/h NO 56,173 klux 395,0 W/qm 1,4 ja - 13:40
13:4515,0 °C 83 % 1024,4 hPa 0,0 mm 0,0 mm nein 4,8 km/h 9,7 km/h 0,0 mm/h NO 38,008 klux 267,0 W/qm 1,2 ja - 13:45
13:5015,0 °C 83 % 1024,4 hPa 0,0 mm 0,0 mm nein 6,4 km/h 12,9 km/h 0,0 mm/h N 34,346 klux 241,0 W/qm 1,1 nein - 13:50
13:5515,0 °C 83 % 1024,6 hPa 0,0 mm 0,0 mm nein 4,8 km/h 12,9 km/h 0,0 mm/h SW 34,960 klux 245,0 W/qm 1,1 nein - 13:55
UhrzeitTemperaturFeuchteLuftdruckNiederschlagEvapotranspirationNiederschlag?WindWindböenRegenrateWindrichtungHelligkeitSolarstrahlungUV-IndexSonne?Feinstaub 10µmUhrzeit
14:0015,6 °C 82 % 1024,4 hPa 0,0 mm 0,2 mm nein 8,0 km/h 16,1 km/h 0,0 mm/h SW 40,580 klux 284,0 W/qm 1,1 ja - 14:00
14:0515,6 °C 81 % 1024,4 hPa 0,0 mm 0,0 mm nein 8,0 km/h 16,1 km/h 0,0 mm/h SW 37,921 klux 265,0 W/qm 1,1 ja - 14:05
14:1015,6 °C 82 % 1024,4 hPa 0,0 mm 0,0 mm nein 6,4 km/h 12,9 km/h 0,0 mm/h NNW 39,415 klux 275,0 W/qm 1,1 ja - 14:10
14:1515,6 °C 81 % 1024,3 hPa 0,0 mm 0,0 mm nein 6,4 km/h 12,9 km/h 0,0 mm/h N 34,026 klux 237,0 W/qm 1,0 ja - 14:15
14:2015,6 °C 82 % 1024,1 hPa 0,0 mm 0,0 mm nein 6,4 km/h 12,9 km/h 0,0 mm/h NNW 34,231 klux 238,0 W/qm 1,0 ja - 14:20
14:2515,6 °C 82 % 1024,1 hPa 0,0 mm 0,0 mm nein 6,4 km/h 14,5 km/h 0,0 mm/h NNW 34,296 klux 238,0 W/qm 1,0 ja - 14:25
14:3015,6 °C 82 % 1024,0 hPa 0,0 mm 0,0 mm nein 4,8 km/h 11,3 km/h 0,0 mm/h NNO 32,199 klux 223,0 W/qm 1,0 nein - 14:30
14:3515,6 °C 82 % 1023,9 hPa 0,0 mm 0,0 mm nein 6,4 km/h 9,7 km/h 0,0 mm/h NNO 29,807 klux 206,0 W/qm 0,9 nein - 14:35
14:4015,6 °C 82 % 1023,8 hPa 0,0 mm 0,0 mm nein 6,4 km/h 16,1 km/h 0,0 mm/h NO 28,132 klux 194,0 W/qm 0,8 nein - 14:40
14:4515,6 °C 82 % 1023,6 hPa 0,0 mm 0,0 mm nein 6,4 km/h 12,9 km/h 0,0 mm/h NNO 27,325 klux 188,0 W/qm 0,8 nein - 14:45
14:5015,6 °C 82 % 1023,5 hPa 0,0 mm 0,0 mm nein 4,8 km/h 12,9 km/h 0,0 mm/h NNW 26,807 klux 184,0 W/qm 0,8 nein - 14:50
14:5515,6 °C 83 % 1023,6 hPa 0,0 mm 0,0 mm nein 4,8 km/h 8,0 km/h 0,0 mm/h NNW 26,435 klux 181,0 W/qm 0,7 nein - 14:55
15:0015,6 °C 82 % 1023,6 hPa 0,0 mm 0,1 mm nein 6,4 km/h 12,9 km/h 0,0 mm/h N 25,625 klux 175,0 W/qm 0,7 nein - 15:00
15:0515,6 °C 82 % 1023,6 hPa 0,0 mm 0,0 mm nein 8,0 km/h 12,9 km/h 0,0 mm/h NNW 25,105 klux 171,0 W/qm 0,7 nein - 15:05
15:1015,6 °C 82 % 1023,4 hPa 0,0 mm 0,0 mm nein 4,8 km/h 12,9 km/h 0,0 mm/h SW 24,585 klux 167,0 W/qm 0,6 nein - 15:10
15:1515,6 °C 82 % 1023,4 hPa 0,0 mm 0,0 mm nein 4,8 km/h 8,0 km/h 0,0 mm/h SW 24,358 klux 165,0 W/qm 0,6 nein - 15:15
15:2015,6 °C 83 % 1023,4 hPa 0,0 mm 0,0 mm nein 3,2 km/h 6,4 km/h 0,0 mm/h SW 24,873 klux 168,0 W/qm 0,6 nein - 15:20
15:2515,6 °C 83 % 1023,4 hPa 0,0 mm 0,0 mm nein 3,2 km/h 6,4 km/h 0,0 mm/h SW 24,055 klux 162,0 W/qm 0,6 nein - 15:25
15:3015,6 °C 82 % 1023,4 hPa 0,0 mm 0,0 mm nein 3,2 km/h 8,0 km/h 0,0 mm/h SW 23,234 klux 156,0 W/qm 0,6 nein - 15:30
15:3515,6 °C 82 % 1023,3 hPa 0,0 mm 0,0 mm nein 1,6 km/h 6,4 km/h 0,0 mm/h SW 22,858 klux 153,0 W/qm 0,5 nein - 15:35
15:4015,6 °C 82 % 1023,3 hPa 0,0 mm 0,0 mm nein 3,2 km/h 6,4 km/h 0,0 mm/h SW 23,379 klux 156,0 W/qm 0,5 nein - 15:40
15:4515,6 °C 82 % 1023,2 hPa 0,0 mm 0,0 mm nein 0,0 km/h 4,8 km/h 0,0 mm/h SW 24,056 klux 160,0 W/qm 0,5 nein - 15:45
15:5015,6 °C 82 % 1023,3 hPa 0,0 mm 0,0 mm nein 0,0 km/h 0,0 km/h 0,0 mm/h N 24,135 klux 160,0 W/qm 0,5 ja - 15:50
15:5515,6 °C 82 % 1023,3 hPa 0,0 mm 0,0 mm nein 0,0 km/h 0,0 km/h 0,0 mm/h N 24,215 klux 160,0 W/qm 0,5 ja - 15:55
UhrzeitTemperaturFeuchteLuftdruckNiederschlagEvapotranspirationNiederschlag?WindWindböenRegenrateWindrichtungHelligkeitSolarstrahlungUV-IndexSonne?Feinstaub 10µmUhrzeit
16:0015,6 °C 82 % 1023,2 hPa 0,0 mm 0,1 mm nein 1,6 km/h 6,4 km/h 0,0 mm/h SW 22,627 klux 149,0 W/qm 0,1 ja - 16:00
16:0515,6 °C 82 % 1023,1 hPa 0,0 mm 0,0 mm nein 3,2 km/h 6,4 km/h 0,0 mm/h SW 20,876 klux 137,0 W/qm 0,0 nein - 16:05
16:1015,6 °C 83 % 1023,2 hPa 0,0 mm 0,0 mm nein 1,6 km/h 4,8 km/h 0,0 mm/h SW 20,031 klux 131,0 W/qm 0,0 nein - 16:10
16:1515,6 °C 83 % 1023,2 hPa 0,0 mm 0,0 mm nein 0,0 km/h 1,6 km/h 0,0 mm/h SW 19,642 klux 128,0 W/qm 0,0 nein - 16:15
16:2015,6 °C 83 % 1023,2 hPa 0,0 mm 0,0 mm nein 0,0 km/h 4,8 km/h 0,0 mm/h SW 19,712 klux 128,0 W/qm 0,0 ja - 16:20
16:2515,6 °C 83 % 1023,2 hPa 0,0 mm 0,0 mm nein 3,2 km/h 6,4 km/h 0,0 mm/h SW 19,475 klux 126,0 W/qm 0,0 ja - 16:25
16:3015,6 °C 83 % 1023,2 hPa 0,0 mm 0,0 mm nein 4,8 km/h 8,0 km/h 0,0 mm/h SW 20,477 klux 132,0 W/qm 0,0 ja - 16:30
16:3515,6 °C 83 % 1023,0 hPa 0,0 mm 0,0 mm nein 4,8 km/h 9,7 km/h 0,0 mm/h SW 23,822 klux 153,0 W/qm 0,0 ja - 16:35
16:4015,6 °C 82 % 1023,0 hPa 0,0 mm 0,0 mm nein 4,8 km/h 11,3 km/h 0,0 mm/h SW 27,975 klux 179,0 W/qm 0,0 ja - 16:40
16:4515,6 °C 82 % 1023,0 hPa 0,0 mm 0,0 mm nein 4,8 km/h 11,3 km/h 0,0 mm/h N 29,178 klux 186,0 W/qm 0,0 ja - 16:45
16:5015,6 °C 82 % 1023,0 hPa 0,0 mm 0,0 mm nein 6,4 km/h 11,3 km/h 0,0 mm/h N 29,132 klux 185,0 W/qm 0,0 ja - 16:50
16:5515,0 °C 82 % 1023,2 hPa 0,0 mm 0,0 mm nein 6,4 km/h 11,3 km/h 0,0 mm/h N 29,402 klux 186,0 W/qm 0,0 ja - 16:55
17:0015,0 °C 83 % 1023,4 hPa 0,0 mm 0,1 mm nein 3,2 km/h 6,4 km/h 0,0 mm/h NNW 23,485 klux 148,0 W/qm 0,0 ja - 17:00
17:0515,0 °C 83 % 1023,3 hPa 0,0 mm 0,0 mm nein 1,6 km/h 6,4 km/h 0,0 mm/h NNW 18,320 klux 115,0 W/qm 0,0 ja - 17:05
17:1015,0 °C 83 % 1023,2 hPa 0,0 mm 0,0 mm nein 3,2 km/h 6,4 km/h 0,0 mm/h N 15,513 klux 97,0 W/qm 0,0 ja - 17:10
17:1515,0 °C 83 % 1023,2 hPa 0,0 mm 0,0 mm nein 4,8 km/h 9,7 km/h 0,0 mm/h NNO 15,413 klux 96,0 W/qm 0,0 ja - 17:15
17:2015,0 °C 83 % 1023,2 hPa 0,0 mm 0,0 mm nein 3,2 km/h 6,4 km/h 0,0 mm/h N 12,089 klux 75,0 W/qm 0,0 ja - 17:20
17:2515,0 °C 83 % 1023,2 hPa 0,0 mm 0,0 mm nein 3,2 km/h 6,4 km/h 0,0 mm/h N 8,901 klux 55,0 W/qm 0,0 ja - 17:25
17:3015,0 °C 83 % 1023,2 hPa 0,0 mm 0,0 mm nein 1,6 km/h 6,4 km/h 0,0 mm/h N 7,799 klux 48,0 W/qm 0,0 ja - 17:30
17:3515,0 °C 82 % 1023,3 hPa 0,0 mm 0,0 mm nein 3,2 km/h 6,4 km/h 0,0 mm/h NNW 6,688 klux 41,0 W/qm 0,0 ja - 17:35
17:4015,0 °C 82 % 1023,3 hPa 0,0 mm 0,0 mm nein 1,6 km/h 6,4 km/h 0,0 mm/h NNW 5,568 klux 34,0 W/qm 0,0 ja - 17:40
17:4515,0 °C 82 % 1023,2 hPa 0,0 mm 0,0 mm nein 3,2 km/h 6,4 km/h 0,0 mm/h N 4,604 klux 28,0 W/qm 0,0 ja - 17:45
17:5015,0 °C 82 % 1023,2 hPa 0,0 mm 0,0 mm nein 1,6 km/h 4,8 km/h 0,0 mm/h NNW 3,963 klux 24,0 W/qm 0,0 ja - 17:50
17:5515,0 °C 82 % 1023,2 hPa 0,0 mm 0,0 mm nein 0,0 km/h 4,8 km/h 0,0 mm/h NNW 3,150 klux 19,0 W/qm 0,0 ja - 17:55
UhrzeitTemperaturFeuchteLuftdruckNiederschlagEvapotranspirationNiederschlag?WindWindböenRegenrateWindrichtungHelligkeitSolarstrahlungUV-IndexSonne?Feinstaub 10µmUhrzeit
18:0015,0 °C 83 % 1023,2 hPa 0,0 mm 0,0 mm nein 0,0 km/h 0,0 km/h 0,0 mm/h N 2,330 klux 14,0 W/qm 0,0 ja - 18:00
18:0514,4 °C 83 % 1023,2 hPa 0,0 mm 0,0 mm nein 0,0 km/h 0,0 km/h 0,0 mm/h N 1,671 klux 10,0 W/qm 0,0 nein - 18:05
18:1014,4 °C 83 % 1023,1 hPa 0,0 mm 0,0 mm nein 0,0 km/h 0,0 km/h 0,0 mm/h N 1,175 klux 7,0 W/qm 0,0 nein - 18:10
18:1514,4 °C 83 % 1023,2 hPa 0,0 mm 0,0 mm nein 0,0 km/h 0,0 km/h 0,0 mm/h N 0,505 klux 3,0 W/qm 0,0 nein - 18:15
18:2014,4 °C 83 % 1023,2 hPa 0,0 mm 0,0 mm nein 0,0 km/h 0,0 km/h 0,0 mm/h N 0,000 klux 0,0 W/qm 0,0 nein - 18:20
18:2514,4 °C 82 % 1023,1 hPa 0,0 mm 0,0 mm nein 0,0 km/h 0,0 km/h 0,0 mm/h N 0,000 klux 0,0 W/qm 0,0 nein - 18:25
18:3013,9 °C 83 % 1023,2 hPa 0,0 mm 0,0 mm nein 0,0 km/h 0,0 km/h 0,0 mm/h N 0,000 klux 0,0 W/qm 0,0 nein - 18:30
18:3513,9 °C 83 % 1023,2 hPa 0,0 mm 0,0 mm nein 0,0 km/h 0,0 km/h 0,0 mm/h N 0,000 klux 0,0 W/qm 0,0 nein - 18:35
18:4013,9 °C 84 % 1023,3 hPa 0,0 mm 0,0 mm nein 0,0 km/h 0,0 km/h 0,0 mm/h N 0,000 klux 0,0 W/qm 0,0 nein - 18:40
18:4513,9 °C 84 % 1023,4 hPa 0,0 mm 0,0 mm nein 0,0 km/h 0,0 km/h 0,0 mm/h N 0,000 klux 0,0 W/qm 0,0 nein - 18:45
18:5013,3 °C 84 % 1023,6 hPa 0,0 mm 0,0 mm nein 0,0 km/h 0,0 km/h 0,0 mm/h N 0,000 klux 0,0 W/qm 0,0 nein - 18:50
18:5513,3 °C 85 % 1023,6 hPa 0,0 mm 0,0 mm nein 0,0 km/h 0,0 km/h 0,0 mm/h N 0,000 klux 0,0 W/qm 0,0 nein - 18:55
19:0013,3 °C 85 % 1023,8 hPa 0,0 mm 0,0 mm nein 0,0 km/h 0,0 km/h 0,0 mm/h N 0,000 klux 0,0 W/qm 0,0 nein - 19:00
19:0513,3 °C 85 % 1023,8 hPa 0,0 mm 0,0 mm nein 0,0 km/h 0,0 km/h 0,0 mm/h N 0,000 klux 0,0 W/qm 0,0 nein - 19:05
19:1012,8 °C 85 % 1024,0 hPa 0,0 mm 0,0 mm nein 0,0 km/h 0,0 km/h 0,0 mm/h N 0,000 klux 0,0 W/qm 0,0 nein - 19:10
19:1512,8 °C 86 % 1024,1 hPa 0,0 mm 0,0 mm nein 0,0 km/h 0,0 km/h 0,0 mm/h N 0,000 klux 0,0 W/qm 0,0 nein - 19:15
19:2012,8 °C 86 % 1024,0 hPa 0,0 mm 0,0 mm nein 0,0 km/h 0,0 km/h 0,0 mm/h N 0,000 klux 0,0 W/qm 0,0 nein - 19:20
19:2512,8 °C 86 % 1024,0 hPa 0,0 mm 0,0 mm nein 0,0 km/h 0,0 km/h 0,0 mm/h N 0,000 klux 0,0 W/qm 0,0 nein - 19:25
19:3012,2 °C 86 % 1024,1 hPa 0,0 mm 0,0 mm nein 0,0 km/h 0,0 km/h 0,0 mm/h N 0,000 klux 0,0 W/qm 0,0 nein - 19:30
19:3512,2 °C 86 % 1024,1 hPa 0,0 mm 0,0 mm nein 0,0 km/h 0,0 km/h 0,0 mm/h N 0,000 klux 0,0 W/qm 0,0 nein - 19:35
19:4012,2 °C 87 % 1024,0 hPa 0,0 mm 0,0 mm nein 0,0 km/h 0,0 km/h 0,0 mm/h N 0,000 klux 0,0 W/qm 0,0 nein - 19:40
19:4512,2 °C 87 % 1024,0 hPa 0,0 mm 0,0 mm nein 0,0 km/h 0,0 km/h 0,0 mm/h N 0,000 klux 0,0 W/qm 0,0 nein - 19:45
19:5011,7 °C 87 % 1024,1 hPa 0,0 mm 0,0 mm nein 0,0 km/h 0,0 km/h 0,0 mm/h N 0,000 klux 0,0 W/qm 0,0 nein - 19:50
19:5511,7 °C 87 % 1024,0 hPa 0,0 mm 0,0 mm nein 0,0 km/h 0,0 km/h 0,0 mm/h N 0,000 klux 0,0 W/qm 0,0 nein - 19:55
UhrzeitTemperaturFeuchteLuftdruckNiederschlagEvapotranspirationNiederschlag?WindWindböenRegenrateWindrichtungHelligkeitSolarstrahlungUV-IndexSonne?Feinstaub 10µmUhrzeit
20:0011,7 °C 87 % 1024,1 hPa 0,0 mm 0,0 mm nein 0,0 km/h 0,0 km/h 0,0 mm/h N 0,000 klux 0,0 W/qm 0,0 nein - 20:00
20:0511,7 °C 88 % 1024,0 hPa 0,0 mm 0,0 mm nein 0,0 km/h 0,0 km/h 0,0 mm/h N 0,000 klux 0,0 W/qm 0,0 nein - 20:05
20:1011,7 °C 88 % 1024,0 hPa 0,0 mm 0,0 mm nein 0,0 km/h 0,0 km/h 0,0 mm/h N 0,000 klux 0,0 W/qm 0,0 nein - 20:10
20:1511,7 °C 88 % 1024,0 hPa 0,0 mm 0,0 mm nein 0,0 km/h 0,0 km/h 0,0 mm/h N 0,000 klux 0,0 W/qm 0,0 nein - 20:15
20:2011,1 °C 88 % 1024,1 hPa 0,0 mm 0,0 mm nein 0,0 km/h 0,0 km/h 0,0 mm/h N 0,000 klux 0,0 W/qm 0,0 nein - 20:20
20:2511,1 °C 88 % 1024,1 hPa 0,0 mm 0,0 mm nein 0,0 km/h 0,0 km/h 0,0 mm/h N 0,000 klux 0,0 W/qm 0,0 nein - 20:25
Gesamt: 11,9 °C 90 % 1024,4 hPa 0,0 mm 1,1 mm nein 1,9 km/h 4,2 km/h 0,0 mm/h 0 14,522 klux 98,5 W/qm 0,3 ja nan µg/m³

Insgesamt 246 Zeilen mal 15 Spalten = 3690 Werte werden angezeigt.

www.wetter-rosstal.de   •   www.wetter-franken.de   •   www.lightningmaps.org   •   Start   •   Kontakt / Datenschutz   •   PC-Kümmerer